createdAt,value
2016-09-08T00:00:06.499Z,22.27
2016-09-08T00:01:06.490Z,22.21
2016-09-08T00:02:06.462Z,22.2
2016-09-08T00:03:06.455Z,22.15
2016-09-08T00:04:06.436Z,22.24
2016-09-08T00:05:06.425Z,22.24
2016-09-08T00:06:06.407Z,22.19
2016-09-08T00:07:06.401Z,22.12
2016-09-08T00:08:06.374Z,22.15
2016-09-08T00:09:06.356Z,22.15
2016-09-08T00:10:06.033Z,22.14
2016-09-08T00:11:06.321Z,22.24
2016-09-08T00:12:06.313Z,22.17
2016-09-08T00:13:05.982Z,22.14
2016-09-08T00:14:06.280Z,22.2
2016-09-08T00:15:06.274Z,22.14
2016-09-08T00:16:06.253Z,22.19
2016-09-08T00:17:06.234Z,22.17
2016-09-08T00:18:06.219Z,22.19
2016-09-08T00:19:06.201Z,22.17
2016-09-08T00:20:06.193Z,22.11
2016-09-08T00:21:05.867Z,22.05
2016-09-08T00:22:06.165Z,22.05
2016-09-08T00:23:05.831Z,22.08
2016-09-08T00:24:06.118Z,22.11
2016-09-08T00:25:06.103Z,22.01
2016-09-08T00:26:06.087Z,22.02
2016-09-08T00:27:06.086Z,22.09
2016-09-08T00:28:05.749Z,22.08
2016-09-08T00:29:06.044Z,22.09
2016-09-08T00:30:06.028Z,22.17
2016-09-08T00:31:06.015Z,22.09
2016-09-08T00:32:06.011Z,22.09
2016-09-08T00:33:05.982Z,22.02
2016-09-08T00:34:05.657Z,22.02
2016-09-08T00:35:05.639Z,22.11
2016-09-08T00:36:05.933Z,22.04
2016-09-08T00:37:05.608Z,22.11
2016-09-08T00:38:05.898Z,22.08
2016-09-08T00:39:05.588Z,22.09
2016-09-08T00:40:05.864Z,22.06
2016-09-08T00:41:05.549Z,22.06
2016-09-08T00:42:05.840Z,22.12
2016-09-08T00:43:05.819Z,21.99
2016-09-08T00:44:05.815Z,22.04
2016-09-08T00:45:05.478Z,22.06
2016-09-08T00:46:05.774Z,22.08
2016-09-08T00:47:05.446Z,21.99
2016-09-08T00:48:05.123Z,22.05
2016-09-08T00:49:05.409Z,21.94
2016-09-08T00:50:05.716Z,21.98
2016-09-08T00:51:05.699Z,21.91
2016-09-08T00:52:05.673Z,21.91
2016-09-08T00:53:05.362Z,21.93
2016-09-08T00:54:05.355Z,22.02
2016-09-08T00:55:05.314Z,22.04
2016-09-08T00:56:05.305Z,21.91
2016-09-08T00:57:05.593Z,21.98
2016-09-08T00:58:04.959Z,21.9
2016-09-08T00:59:05.570Z,21.89
2016-09-08T01:00:04.930Z,22.01
2016-09-08T01:01:05.224Z,21.93
2016-09-08T01:02:04.898Z,21.98
2016-09-08T01:03:05.200Z,21.94
2016-09-08T01:04:05.489Z,21.94
2016-09-08T01:05:04.848Z,21.96
2016-09-08T01:06:05.148Z,21.94
2016-09-08T01:07:05.444Z,21.98
2016-09-08T01:08:05.440Z,21.85
2016-09-08T01:09:05.415Z,21.86
2016-09-08T01:10:05.398Z,21.91
2016-09-08T01:11:05.383Z,21.74
2016-09-08T01:12:05.350Z,21.79
2016-09-08T01:13:05.345Z,21.73
2016-09-08T01:14:05.329Z,21.71
2016-09-08T01:15:05.308Z,21.59
2016-09-08T01:16:04.998Z,21.67
2016-09-08T01:17:05.289Z,21.66
2016-09-08T01:18:04.971Z,21.68
2016-09-08T01:19:05.255Z,21.7
2016-09-08T01:20:05.247Z,21.63
2016-09-08T01:21:05.229Z,21.7
2016-09-08T01:22:04.885Z,21.66
2016-09-08T01:23:05.218Z,21.67
2016-09-08T01:24:04.852Z,21.74
2016-09-08T01:25:04.856Z,21.74
2016-09-08T01:26:05.141Z,21.63
2016-09-08T01:27:05.123Z,21.75
2016-09-08T01:28:04.787Z,21.73
2016-09-08T01:29:05.093Z,21.71
2016-09-08T01:30:05.069Z,21.7
2016-09-08T01:31:05.060Z,21.7
2016-09-08T01:32:04.736Z,21.68
2016-09-08T01:33:05.024Z,21.63
2016-09-08T01:34:04.698Z,21.71
2016-09-08T01:35:04.688Z,21.63
2016-09-08T01:36:04.981Z,21.71
2016-09-08T01:37:04.966Z,21.59
2016-09-08T01:38:04.640Z,21.66
2016-09-08T01:39:04.932Z,21.51
2016-09-08T01:40:04.928Z,21.56
2016-09-08T01:41:04.584Z,21.56
2016-09-08T01:42:04.571Z,21.52
2016-09-08T01:43:04.876Z,21.48
2016-09-08T01:44:04.855Z,21.58
2016-09-08T01:45:04.211Z,21.56
2016-09-08T01:46:04.830Z,21.55
2016-09-08T01:47:04.798Z,21.49
2016-09-08T01:48:04.810Z,21.56
2016-09-08T01:49:04.456Z,21.59
2016-09-08T01:50:04.450Z,21.53
2016-09-08T01:51:04.739Z,21.56
2016-09-08T01:52:04.419Z,21.59
2016-09-08T01:53:04.724Z,21.53
2016-09-08T01:54:04.689Z,21.48
2016-09-08T01:55:04.370Z,21.45
2016-09-08T01:56:04.360Z,21.55
2016-09-08T01:57:04.334Z,21.55
2016-09-08T01:58:04.329Z,21.52
2016-09-08T01:59:04.611Z,21.48
2016-09-08T02:00:04.283Z,21.52
2016-09-08T02:01:04.278Z,21.52
2016-09-08T02:02:04.569Z,21.52
2016-09-08T02:03:04.238Z,21.55
2016-09-08T02:04:04.219Z,21.48
2016-09-08T02:05:04.519Z,21.49
2016-09-08T02:06:04.500Z,21.51
2016-09-08T02:07:04.481Z,21.38
2016-09-08T02:08:04.465Z,21.36
2016-09-08T02:09:04.141Z,21.4
2016-09-08T02:10:04.125Z,21.43
2016-09-08T02:11:04.426Z,21.53
2016-09-08T02:12:04.092Z,21.46
2016-09-08T02:13:04.072Z,21.53
2016-09-08T02:14:04.370Z,21.45
2016-09-08T02:15:04.363Z,21.58
2016-09-08T02:16:04.348Z,21.38
2016-09-08T02:17:04.009Z,21.45
2016-09-08T02:18:04.305Z,21.26
2016-09-08T02:19:04.004Z,21.26
2016-09-08T02:20:03.975Z,21.28
2016-09-08T02:21:04.252Z,21.24
2016-09-08T02:22:04.243Z,21.27
2016-09-08T02:23:04.223Z,21.26
2016-09-08T02:24:03.892Z,21.26
2016-09-08T02:25:04.189Z,21.18
2016-09-08T02:26:04.186Z,21.28
2016-09-08T02:27:03.865Z,21.3
2016-09-08T02:28:04.153Z,21.33
2016-09-08T02:29:03.812Z,21.26
2016-09-08T02:30:03.799Z,21.27
2016-09-08T02:31:04.094Z,21.3
2016-09-08T02:32:03.769Z,21.28
2016-09-08T02:33:04.064Z,21.19
2016-09-08T02:34:04.050Z,21.31
2016-09-08T02:35:04.026Z,21.28
2016-09-08T02:36:03.395Z,21.31
2016-09-08T02:37:04.004Z,21.31
2016-09-08T02:38:03.680Z,21.34
2016-09-08T02:39:04.008Z,21.26
2016-09-08T02:40:03.953Z,21.28
2016-09-08T02:41:03.617Z,21.21
2016-09-08T02:42:03.614Z,21.15
2016-09-08T02:43:03.913Z,21.16
2016-09-08T02:44:03.570Z,21.16
2016-09-08T02:45:03.871Z,21.09
2016-09-08T02:46:03.863Z,21.15
2016-09-08T02:47:03.526Z,21.16
2016-09-08T02:48:03.197Z,21.13
2016-09-08T02:49:03.822Z,21.13
2016-09-08T02:50:03.790Z,21.12
2016-09-08T02:51:03.774Z,21.13
2016-09-08T02:52:03.753Z,21.08
2016-09-08T02:53:03.739Z,21.18
2016-09-08T02:54:03.723Z,21.08
2016-09-08T02:55:03.705Z,21.13
2016-09-08T02:56:03.688Z,21.06
2016-09-08T02:57:03.674Z,21.05
2016-09-08T02:58:03.670Z,21.08
2016-09-08T02:59:03.642Z,21.11
2016-09-08T03:00:03.314Z,21.15
2016-09-08T03:01:03.293Z,21.09
2016-09-08T03:02:03.595Z,21.09
2016-09-08T03:03:03.265Z,20.98
2016-09-08T03:04:02.937Z,21.11
2016-09-08T03:05:03.554Z,21.08
2016-09-08T03:06:03.528Z,21.01
2016-09-08T03:07:03.513Z,21.03
2016-09-08T03:08:03.497Z,21.01
2016-09-08T03:09:03.166Z,20.94
2016-09-08T03:10:03.148Z,21
2016-09-08T03:11:03.446Z,21.01
2016-09-08T03:12:03.449Z,21.06
2016-09-08T03:13:03.428Z,21.19
2016-09-08T03:14:03.399Z,21.06
2016-09-08T03:15:03.386Z,21.01
2016-09-08T03:16:03.373Z,21.01
2016-09-08T03:17:03.035Z,20.98
2016-09-08T03:18:03.333Z,21
2016-09-08T03:19:03.321Z,20.97
2016-09-08T03:20:02.983Z,20.98
2016-09-08T03:21:02.970Z,20.97
2016-09-08T03:22:03.267Z,21.06
2016-09-08T03:23:03.250Z,21.16
2016-09-08T03:24:02.928Z,21.13
2016-09-08T03:25:02.903Z,21.11
2016-09-08T03:26:02.895Z,21.06
2016-09-08T03:27:02.868Z,21.09
2016-09-08T03:28:02.850Z,21.05
2016-09-08T03:29:03.151Z,20.97
2016-09-08T03:30:03.138Z,21.03
2016-09-08T03:31:03.118Z,20.98
2016-09-08T03:32:02.789Z,21.05
2016-09-08T03:33:02.766Z,21.05
2016-09-08T03:34:03.070Z,20.97
2016-09-08T03:35:02.738Z,20.93
2016-09-08T03:36:03.040Z,20.94
2016-09-08T03:37:02.765Z,20.94
2016-09-08T03:38:03.006Z,20.97
2016-09-08T03:39:02.668Z,20.93
2016-09-08T03:40:02.971Z,20.96
2016-09-08T03:41:02.960Z,20.94
2016-09-08T03:42:02.935Z,20.82
2016-09-08T03:43:02.608Z,20.83
2016-09-08T03:44:02.588Z,21
2016-09-08T03:45:02.888Z,20.85
2016-09-08T03:46:02.876Z,20.85
2016-09-08T03:47:02.543Z,20.91
2016-09-08T03:48:02.838Z,20.96
2016-09-08T03:49:02.517Z,21.03
2016-09-08T03:50:02.815Z,20.97
2016-09-08T03:51:02.793Z,20.96
2016-09-08T03:52:02.456Z,20.97
2016-09-08T03:53:02.754Z,20.96
2016-09-08T03:54:02.740Z,20.91
2016-09-08T03:55:02.099Z,20.87
2016-09-08T03:56:02.714Z,20.87
2016-09-08T03:57:02.688Z,20.87
2016-09-08T03:58:02.679Z,20.83
2016-09-08T03:59:02.346Z,20.72
2016-09-08T04:00:02.638Z,20.76
2016-09-08T04:01:02.629Z,20.76
2016-09-08T04:02:02.298Z,20.83
2016-09-08T04:03:02.603Z,20.94
2016-09-08T04:04:02.263Z,20.88
2016-09-08T04:05:02.250Z,20.76
2016-09-08T04:06:02.543Z,20.93
2016-09-08T04:07:02.531Z,20.91
2016-09-08T04:08:02.511Z,20.85
2016-09-08T04:09:02.493Z,20.85
2016-09-08T04:10:02.491Z,20.9
2016-09-08T04:11:02.458Z,20.93
2016-09-08T04:12:02.134Z,20.83
2016-09-08T04:13:02.427Z,20.87
2016-09-08T04:14:02.416Z,20.9
2016-09-08T04:15:02.393Z,20.87
2016-09-08T04:16:02.063Z,20.88
2016-09-08T04:17:02.363Z,20.87
2016-09-08T04:18:01.718Z,20.85
2016-09-08T04:19:02.330Z,20.9
2016-09-08T04:20:02.314Z,20.78
2016-09-08T04:21:02.297Z,20.75
2016-09-08T04:22:01.974Z,20.71
2016-09-08T04:23:01.947Z,20.75
2016-09-08T04:24:02.243Z,20.73
2016-09-08T04:25:02.226Z,20.64
2016-09-08T04:26:02.212Z,20.79
2016-09-08T04:27:01.879Z,20.75
2016-09-08T04:28:01.862Z,20.75
2016-09-08T04:29:02.163Z,20.82
2016-09-08T04:30:01.835Z,20.83
2016-09-08T04:31:02.122Z,20.87
2016-09-08T04:32:01.494Z,20.79
2016-09-08T04:33:02.110Z,20.87
2016-09-08T04:34:02.092Z,20.76
2016-09-08T04:35:02.063Z,20.75
2016-09-08T04:36:02.058Z,20.58
2016-09-08T04:37:02.030Z,20.66
2016-09-08T04:38:01.699Z,20.64
2016-09-08T04:39:01.999Z,20.64
2016-09-08T04:40:01.663Z,20.63
2016-09-08T04:41:01.663Z,20.64
2016-09-08T04:42:01.941Z,20.68
2016-09-08T04:43:01.929Z,20.66
2016-09-08T04:44:01.289Z,20.72
2016-09-08T04:45:01.592Z,20.69
2016-09-08T04:46:01.881Z,20.63
2016-09-08T04:47:01.559Z,20.63
2016-09-08T04:48:01.855Z,20.79
2016-09-08T04:49:01.528Z,20.63
2016-09-08T04:50:01.830Z,20.73
2016-09-08T04:51:01.799Z,20.71
2016-09-08T04:52:01.794Z,20.69
2016-09-08T04:53:01.776Z,20.63
2016-09-08T04:54:01.744Z,20.61
2016-09-08T04:55:01.420Z,20.68
2016-09-08T04:56:01.406Z,20.75
2016-09-08T04:57:01.701Z,20.73
2016-09-08T04:58:01.684Z,20.61
2016-09-08T04:59:01.673Z,20.63
2016-09-08T05:00:01.338Z,20.68
2016-09-08T05:01:01.637Z,20.71
2016-09-08T05:02:01.623Z,20.75
2016-09-08T05:03:01.604Z,20.79
2016-09-08T05:04:01.586Z,20.78
2016-09-08T05:05:01.586Z,20.72
2016-09-08T05:06:01.238Z,20.81
2016-09-08T05:07:01.225Z,20.78
2016-09-08T05:08:01.213Z,20.87
2016-09-08T05:09:01.494Z,20.82
2016-09-08T05:10:01.483Z,20.94
2016-09-08T05:11:01.468Z,20.88
2016-09-08T05:12:01.449Z,20.88
2016-09-08T05:13:01.436Z,20.87
2016-09-08T05:14:01.109Z,20.93
2016-09-08T05:15:01.406Z,20.75
2016-09-08T05:16:01.402Z,20.83
2016-09-08T05:17:01.365Z,20.9
2016-09-08T05:18:00.721Z,20.96
2016-09-08T05:19:01.022Z,20.9
2016-09-08T05:20:01.313Z,20.87
2016-09-08T05:21:01.302Z,20.83
2016-09-08T05:22:01.281Z,20.85
2016-09-08T05:23:00.955Z,20.87
2016-09-08T05:24:01.261Z,20.85
2016-09-08T05:25:01.236Z,20.87
2016-09-08T05:26:01.223Z,20.9
2016-09-08T05:27:01.206Z,20.85
2016-09-08T05:28:01.180Z,20.81
2016-09-08T05:29:01.176Z,20.87
2016-09-08T05:30:00.839Z,20.78
2016-09-08T05:31:01.134Z,20.87
2016-09-08T05:32:00.804Z,20.88
2016-09-08T05:33:01.101Z,20.9
2016-09-08T05:34:01.094Z,20.83
2016-09-08T05:35:01.073Z,20.85
2016-09-08T05:36:01.060Z,20.87
2016-09-08T05:37:01.045Z,20.79
2016-09-08T05:38:01.012Z,20.87
2016-09-08T05:39:01.003Z,20.83
2016-09-08T05:40:00.982Z,20.81
2016-09-08T05:41:00.970Z,20.73
2016-09-08T05:42:00.955Z,20.75
2016-09-08T05:43:00.931Z,20.81
2016-09-08T05:44:00.923Z,20.78
2016-09-08T05:45:00.921Z,20.78
2016-09-08T05:46:00.890Z,20.79
2016-09-08T05:47:00.876Z,20.81
2016-09-08T05:48:00.855Z,20.87
2016-09-08T05:49:00.836Z,20.87
2016-09-08T05:50:00.816Z,20.9
2016-09-08T05:51:00.813Z,20.88
2016-09-08T05:52:00.792Z,20.88
2016-09-08T05:53:00.772Z,20.87
2016-09-08T05:54:00.761Z,20.78
2016-09-08T05:55:00.734Z,20.88
2016-09-08T05:56:00.723Z,20.9
2016-09-08T05:57:00.715Z,20.83
2016-09-08T05:58:00.683Z,20.91
2016-09-08T05:59:00.673Z,20.85
2016-09-08T06:00:00.655Z,20.91
2016-09-08T06:01:00.634Z,21
2016-09-08T06:02:00.626Z,20.85
2016-09-08T06:03:00.597Z,20.97
2016-09-08T06:04:00.615Z,20.91
2016-09-08T06:05:00.256Z,20.88
2016-09-08T06:06:00.561Z,20.87
2016-09-08T06:07:00.539Z,20.93
2016-09-08T06:08:00.212Z,20.91
2016-09-08T06:09:00.507Z,20.91
2016-09-08T06:10:00.506Z,20.94
2016-09-08T06:11:00.470Z,21
2016-09-08T06:12:00.143Z,20.96
2016-09-08T06:13:00.444Z,21.03
2016-09-08T06:14:00.421Z,21.01
2016-09-08T06:15:00.095Z,21.05
2016-09-08T06:16:00.382Z,21.01
2016-09-08T06:17:00.383Z,21.03
2016-09-08T06:18:00.044Z,21.08
2016-09-08T06:19:00.341Z,21.12
2016-09-08T06:20:00.326Z,21.15
2016-09-08T06:21:00.319Z,21.12
2016-09-08T06:22:00.288Z,21.12
2016-09-08T06:23:00.287Z,21.16
2016-09-08T06:24:00.262Z,21.15
2016-09-08T06:25:00.239Z,21.13
2016-09-08T06:26:00.232Z,21.09
2016-09-08T06:27:00.212Z,21.19
2016-09-08T06:27:59.884Z,21.11
2016-09-08T06:29:00.176Z,21.05
2016-09-08T06:30:00.171Z,21.11
2016-09-08T06:31:00.150Z,21.16
2016-09-08T06:32:00.124Z,21.09
2016-09-08T06:33:00.116Z,21.19
2016-09-08T06:34:00.088Z,21.24
2016-09-08T06:35:00.086Z,21.08
2016-09-08T06:35:59.755Z,21.16
2016-09-08T06:37:00.045Z,21.09
2016-09-08T06:38:00.037Z,21.13
2016-09-08T06:39:00.024Z,21.11
2016-09-08T06:40:00.004Z,21.09
2016-09-08T06:40:59.996Z,21.16
2016-09-08T06:41:59.990Z,21.08
2016-09-08T06:42:59.958Z,21.11
2016-09-08T06:43:59.934Z,21.06
2016-09-08T06:44:59.911Z,21.15
2016-09-08T06:45:59.898Z,21.15
2016-09-08T06:46:59.884Z,21.13
2016-09-08T06:47:59.859Z,21.15
2016-09-08T06:48:59.842Z,21.13
2016-09-08T06:49:59.829Z,21.26
2016-09-08T06:50:59.815Z,21.22
2016-09-08T06:51:59.497Z,21.22
2016-09-08T06:52:59.793Z,21.11
2016-09-08T06:53:59.768Z,21.19
2016-09-08T06:54:59.753Z,21.28
2016-09-08T06:55:59.738Z,21.22
2016-09-08T06:56:59.716Z,21.22
2016-09-08T06:57:59.703Z,21.24
2016-09-08T06:58:59.694Z,21.27
2016-09-08T06:59:59.669Z,21.26
2016-09-08T07:00:59.659Z,21.27
2016-09-08T07:01:59.316Z,21.36
2016-09-08T07:02:59.643Z,21.27
2016-09-08T07:03:59.604Z,21.36
2016-09-08T07:04:59.592Z,21.38
2016-09-08T07:05:59.565Z,21.34
2016-09-08T07:06:59.557Z,21.36
2016-09-08T07:07:59.538Z,21.42
2016-09-08T07:08:59.516Z,21.38
2016-09-08T07:09:59.199Z,21.4
2016-09-08T07:10:59.490Z,21.38
2016-09-08T07:11:59.489Z,21.38
2016-09-08T07:12:59.449Z,21.49
2016-09-08T07:13:59.135Z,21.49
2016-09-08T07:14:59.432Z,21.49
2016-09-08T07:15:59.400Z,21.52
2016-09-08T07:16:59.390Z,21.58
2016-09-08T07:17:59.704Z,21.52
2016-09-08T07:18:59.365Z,21.53
2016-09-08T07:19:59.337Z,21.53
2016-09-08T07:20:59.327Z,21.52
2016-09-08T07:21:59.303Z,21.59
2016-09-08T07:22:59.292Z,21.52
2016-09-08T07:23:59.275Z,21.63
2016-09-08T07:24:59.257Z,21.59
2016-09-08T07:25:59.242Z,21.68
2016-09-08T07:26:59.226Z,21.7
2016-09-08T07:27:59.212Z,21.55
2016-09-08T07:28:58.891Z,21.66
2016-09-08T07:29:59.180Z,21.67
2016-09-08T07:30:59.159Z,21.73
2016-09-08T07:31:59.151Z,21.68
2016-09-08T07:32:58.813Z,21.68
2016-09-08T07:33:59.119Z,21.77
2016-09-08T07:34:58.791Z,21.77
2016-09-08T07:35:59.075Z,21.74
2016-09-08T07:36:59.068Z,21.75
2016-09-08T07:37:59.047Z,21.74
2016-09-08T07:38:59.030Z,21.82
2016-09-08T07:39:59.013Z,21.79
2016-09-08T07:40:58.689Z,21.82
2016-09-08T07:41:58.984Z,21.77
2016-09-08T07:42:58.653Z,21.77
2016-09-08T07:43:58.952Z,21.86
2016-09-08T07:44:58.934Z,21.89
2016-09-08T07:45:58.909Z,21.91
2016-09-08T07:46:58.904Z,21.89
2016-09-08T07:47:58.889Z,21.9
2016-09-08T07:48:58.862Z,21.98
2016-09-08T07:49:58.853Z,21.93
2016-09-08T07:50:58.833Z,22.02
2016-09-08T07:51:58.505Z,22.01
2016-09-08T07:52:58.805Z,22.04
2016-09-08T07:53:58.476Z,22.06
2016-09-08T07:54:58.769Z,22.04
2016-09-08T07:55:58.754Z,22.12
2016-09-08T07:56:58.742Z,22.05
2016-09-08T07:57:58.408Z,22.09
2016-09-08T07:58:58.706Z,22.17
2016-09-08T07:59:58.692Z,22.11
2016-09-08T08:00:58.682Z,22.23
2016-09-08T08:01:58.656Z,22.21
2016-09-08T08:02:58.643Z,22.19
2016-09-08T08:03:58.636Z,22.15
2016-09-08T08:04:58.614Z,22.24
2016-09-08T08:05:58.597Z,22.19
2016-09-08T08:06:58.584Z,22.35
2016-09-08T08:07:58.559Z,22.35
2016-09-08T08:08:58.236Z,22.26
2016-09-08T08:09:58.530Z,22.31
2016-09-08T08:10:58.520Z,22.3
2016-09-08T08:11:58.504Z,22.38
2016-09-08T08:12:58.487Z,22.45
2016-09-08T08:13:58.466Z,22.44
2016-09-08T08:14:58.459Z,22.39
2016-09-08T08:15:58.442Z,22.49
2016-09-08T08:16:58.428Z,22.49
2016-09-08T08:17:58.090Z,22.54
2016-09-08T08:18:58.068Z,22.46
2016-09-08T08:19:58.370Z,22.52
2016-09-08T08:20:58.350Z,22.59
2016-09-08T08:21:58.344Z,22.59
2016-09-08T08:22:58.313Z,22.45
2016-09-08T08:23:58.301Z,22.56
2016-09-08T08:24:57.975Z,22.45
2016-09-08T08:25:58.283Z,22.54
2016-09-08T08:26:58.262Z,22.52
2016-09-08T08:27:58.249Z,22.63
2016-09-08T08:28:58.220Z,22.63
2016-09-08T08:29:58.204Z,22.59
2016-09-08T08:30:58.211Z,22.67
2016-09-08T08:31:58.172Z,22.64
2016-09-08T08:32:58.159Z,22.59
2016-09-08T08:33:57.832Z,22.67
2016-09-08T08:34:58.134Z,22.61
2016-09-08T08:35:58.109Z,22.69
2016-09-08T08:36:58.091Z,22.67
2016-09-08T08:37:58.085Z,22.69
2016-09-08T08:38:58.054Z,22.69
2016-09-08T08:39:58.047Z,22.72
2016-09-08T08:40:58.026Z,22.74
2016-09-08T08:41:58.014Z,22.7
2016-09-08T08:42:57.997Z,22.74
2016-09-08T08:43:57.985Z,22.76
2016-09-08T08:44:57.970Z,22.76
2016-09-08T08:45:57.977Z,22.76
2016-09-08T08:46:57.939Z,22.76
2016-09-08T08:47:57.603Z,22.84
2016-09-08T08:48:57.901Z,22.78
2016-09-08T08:49:57.894Z,22.78
2016-09-08T08:50:57.877Z,22.79
2016-09-08T08:51:57.855Z,22.78
2016-09-08T08:52:57.851Z,22.82
2016-09-08T08:53:57.836Z,22.81
2016-09-08T08:54:57.808Z,22.74
2016-09-08T08:55:57.797Z,22.82
2016-09-08T08:56:57.773Z,22.76
2016-09-08T08:57:57.755Z,22.81
2016-09-08T08:58:57.760Z,22.79
2016-09-08T08:59:57.753Z,22.76
2016-09-08T09:00:57.713Z,22.75
2016-09-08T09:01:57.703Z,22.84
2016-09-08T09:02:57.378Z,22.82
2016-09-08T09:03:57.663Z,22.88
2016-09-08T09:04:57.657Z,22.84
2016-09-08T09:05:57.333Z,22.81
2016-09-08T09:06:57.633Z,22.91
2016-09-08T09:07:57.604Z,22.84
2016-09-08T09:08:57.590Z,22.93
2016-09-08T09:09:57.572Z,22.85
2016-09-08T09:10:57.253Z,22.86
2016-09-08T09:11:57.536Z,22.82
2016-09-08T09:12:57.527Z,22.85
2016-09-08T09:13:57.507Z,22.89
2016-09-08T09:14:57.489Z,22.91
2016-09-08T09:15:57.479Z,22.86
2016-09-08T09:16:57.465Z,22.89
2016-09-08T09:17:57.450Z,22.89
2016-09-08T09:18:56.809Z,22.85
2016-09-08T09:19:57.425Z,22.86
2016-09-08T09:20:57.405Z,22.91
2016-09-08T09:21:57.088Z,22.94
2016-09-08T09:22:57.056Z,22.86
2016-09-08T09:23:57.359Z,22.86
2016-09-08T09:24:57.334Z,22.94
2016-09-08T09:25:57.320Z,23.01
2016-09-08T09:26:57.308Z,22.91
2016-09-08T09:27:57.296Z,22.89
2016-09-08T09:28:57.282Z,22.97
2016-09-08T09:29:57.266Z,22.94
2016-09-08T09:30:57.246Z,22.97
2016-09-08T09:31:57.224Z,22.94
2016-09-08T09:32:57.213Z,23.01
2016-09-08T09:33:57.206Z,22.99
2016-09-08T09:34:57.190Z,22.96
2016-09-08T09:35:57.165Z,23
2016-09-08T09:36:57.157Z,23.04
2016-09-08T09:37:57.148Z,23.03
2016-09-08T09:38:57.115Z,22.89
2016-09-08T09:39:57.129Z,22.99
2016-09-08T09:40:57.105Z,23.04
2016-09-08T09:41:57.080Z,22.96
2016-09-08T09:42:57.064Z,23.01
2016-09-08T09:43:57.044Z,22.93
2016-09-08T09:44:57.037Z,22.94
2016-09-08T09:45:57.012Z,22.94
2016-09-08T09:46:57.003Z,23.09
2016-09-08T09:47:56.672Z,23.09
2016-09-08T09:48:56.974Z,23.07
2016-09-08T09:49:56.948Z,23.18
2016-09-08T09:50:56.942Z,23.15
2016-09-08T09:51:56.925Z,23.09
2016-09-08T09:52:56.909Z,23.15
2016-09-08T09:53:56.894Z,23.15
2016-09-08T09:54:56.876Z,23.18
2016-09-08T09:55:56.851Z,23.09
2016-09-08T09:56:56.843Z,23.15
2016-09-08T09:57:56.828Z,23.15
2016-09-08T09:58:56.824Z,23.14
2016-09-08T09:59:56.797Z,23.18
2016-09-08T10:00:56.773Z,23.19
2016-09-08T10:01:56.454Z,23.16
2016-09-08T10:02:56.753Z,23.25
2016-09-08T10:03:56.736Z,23.23
2016-09-08T10:04:56.720Z,23.29
2016-09-08T10:05:56.702Z,23.31
2016-09-08T10:06:56.688Z,23.23
2016-09-08T10:07:56.674Z,23.23
2016-09-08T10:08:56.666Z,23.29
2016-09-08T10:09:56.640Z,23.23
2016-09-08T10:10:56.624Z,23.31
2016-09-08T10:11:56.618Z,23.19
2016-09-08T10:12:56.595Z,23.34
2016-09-08T10:13:56.586Z,23.26
2016-09-08T10:14:56.576Z,23.25
2016-09-08T10:15:56.551Z,23.26
2016-09-08T10:16:56.218Z,23.26
2016-09-08T10:17:56.527Z,23.29
2016-09-08T10:18:56.507Z,23.29
2016-09-08T10:19:56.484Z,23.26
2016-09-08T10:20:56.471Z,23.22
2016-09-08T10:21:56.456Z,23.31
2016-09-08T10:22:56.436Z,23.23
2016-09-08T10:23:56.112Z,23.23
2016-09-08T10:24:56.099Z,23.19
2016-09-08T10:25:56.398Z,23.26
2016-09-08T10:26:56.072Z,23.25
2016-09-08T10:27:56.359Z,23.25
2016-09-08T10:28:56.357Z,23.26
2016-09-08T10:29:56.020Z,23.26
2016-09-08T10:30:56.316Z,23.31
2016-09-08T10:31:56.310Z,23.22
2016-09-08T10:32:56.282Z,23.26
2016-09-08T10:33:56.269Z,23.25
2016-09-08T10:34:56.251Z,23.31
2016-09-08T10:35:56.241Z,23.29
2016-09-08T10:36:56.227Z,23.29
2016-09-08T10:37:56.210Z,23.26
2016-09-08T10:38:56.198Z,23.29
2016-09-08T10:39:56.174Z,23.31
2016-09-08T10:40:56.174Z,23.38
2016-09-08T10:41:56.145Z,23.26
2016-09-08T10:42:55.510Z,23.31
2016-09-08T10:43:56.126Z,23.37
2016-09-08T10:44:56.098Z,23.32
2016-09-08T10:45:56.089Z,23.34
2016-09-08T10:46:56.061Z,23.38
2016-09-08T10:47:56.054Z,23.34
2016-09-08T10:48:56.049Z,23.34
2016-09-08T10:49:56.016Z,23.41
2016-09-08T10:50:56.012Z,23.32
2016-09-08T10:51:56.018Z,23.32
2016-09-08T10:52:55.676Z,23.37
2016-09-08T10:53:55.964Z,23.41
2016-09-08T10:54:55.949Z,23.42
2016-09-08T10:55:55.944Z,23.39
2016-09-08T10:56:55.921Z,23.35
2016-09-08T10:57:55.901Z,23.41
2016-09-08T10:58:55.580Z,23.41
2016-09-08T10:59:55.871Z,23.42
2016-09-08T11:00:55.850Z,23.39
2016-09-08T11:01:55.833Z,23.44
2016-09-08T11:02:55.831Z,23.38
2016-09-08T11:03:55.814Z,23.38
2016-09-08T11:04:55.791Z,23.38
2016-09-08T11:05:55.785Z,23.41
2016-09-08T11:06:55.764Z,23.42
2016-09-08T11:07:55.746Z,23.41
2016-09-08T11:08:55.745Z,23.41
2016-09-08T11:09:55.715Z,23.34
2016-09-08T11:10:55.698Z,23.39
2016-09-08T11:11:55.680Z,23.37
2016-09-08T11:12:55.676Z,23.44
2016-09-08T11:13:55.658Z,23.41
2016-09-08T11:14:55.643Z,23.39
2016-09-08T11:15:55.624Z,23.38
2016-09-08T11:16:55.298Z,23.37
2016-09-08T11:17:55.282Z,23.39
2016-09-08T11:18:55.260Z,23.44
2016-09-08T11:19:55.566Z,23.34
2016-09-08T11:20:55.552Z,23.42
2016-09-08T11:21:55.225Z,23.42
2016-09-08T11:22:55.214Z,23.39
2016-09-08T11:23:55.509Z,23.39
2016-09-08T11:24:55.495Z,23.42
2016-09-08T11:25:55.157Z,23.39
2016-09-08T11:26:55.459Z,23.38
2016-09-08T11:27:55.444Z,23.37
2016-09-08T11:28:55.432Z,23.39
2016-09-08T11:29:55.413Z,23.42
2016-09-08T11:30:55.085Z,23.37
2016-09-08T11:31:55.379Z,23.41
2016-09-08T11:32:55.366Z,23.37
2016-09-08T11:33:55.359Z,23.39
2016-09-08T11:34:55.342Z,23.42
2016-09-08T11:35:55.321Z,23.42
2016-09-08T11:36:54.989Z,23.42
2016-09-08T11:37:55.315Z,23.45
2016-09-08T11:38:54.966Z,23.42
2016-09-08T11:39:55.278Z,23.42
2016-09-08T11:40:55.239Z,23.42
2016-09-08T11:41:55.233Z,23.39
2016-09-08T11:42:54.900Z,23.39
2016-09-08T11:43:55.199Z,23.44
2016-09-08T11:44:55.189Z,23.42
2016-09-08T11:45:55.171Z,23.52
2016-09-08T11:46:55.155Z,23.38
2016-09-08T11:47:55.134Z,23.42
2016-09-08T11:48:55.126Z,23.49
2016-09-08T11:49:54.797Z,23.45
2016-09-08T11:50:55.320Z,23.47
2016-09-08T11:51:55.082Z,23.44
2016-09-08T11:52:54.750Z,23.44
2016-09-08T11:53:55.050Z,23.44
2016-09-08T11:54:54.718Z,23.41
2016-09-08T11:55:55.018Z,23.41
2016-09-08T11:56:54.702Z,23.49
2016-09-08T11:57:54.983Z,23.41
2016-09-08T11:58:54.980Z,23.5
2016-09-08T11:59:54.959Z,23.47
2016-09-08T12:00:54.938Z,23.5
2016-09-08T12:01:54.923Z,23.41
2016-09-08T12:02:54.909Z,23.38
2016-09-08T12:03:54.898Z,23.42
2016-09-08T12:04:54.885Z,23.47
2016-09-08T12:05:54.870Z,23.49
2016-09-08T12:06:54.537Z,23.41
2016-09-08T12:07:54.835Z,23.52
2016-09-08T12:08:54.816Z,23.5
2016-09-08T12:09:54.819Z,23.47
2016-09-08T12:10:54.786Z,23.45
2016-09-08T12:11:54.770Z,23.44
2016-09-08T12:12:54.766Z,23.53
2016-09-08T12:13:54.735Z,23.5
2016-09-08T12:14:54.415Z,23.45
2016-09-08T12:15:54.716Z,23.52
2016-09-08T12:16:54.717Z,23.47
2016-09-08T12:17:54.697Z,23.5
2016-09-08T12:18:54.366Z,23.44
2016-09-08T12:19:54.663Z,23.49
2016-09-08T12:20:54.629Z,23.5
2016-09-08T12:21:54.622Z,23.39
2016-09-08T12:22:54.293Z,23.5
2016-09-08T12:23:54.590Z,23.47
2016-09-08T12:24:54.581Z,23.41
2016-09-08T12:25:54.558Z,23.54
2016-09-08T12:26:54.559Z,23.52
2016-09-08T12:27:54.523Z,23.45
2016-09-08T12:28:54.512Z,23.57
2016-09-08T12:29:54.501Z,23.49
2016-09-08T12:30:54.488Z,23.52
2016-09-08T12:31:54.466Z,23.57
2016-09-08T12:32:54.143Z,23.52
2016-09-08T12:33:54.437Z,23.59
2016-09-08T12:34:54.422Z,23.59
2016-09-08T12:35:54.410Z,23.57
2016-09-08T12:36:54.390Z,23.52
2016-09-08T12:37:54.376Z,23.52
2016-09-08T12:38:54.364Z,23.6
2016-09-08T12:39:54.340Z,23.54
2016-09-08T12:40:54.333Z,23.57
2016-09-08T12:41:54.314Z,23.59
2016-09-08T12:42:54.309Z,23.54
2016-09-08T12:43:54.292Z,23.57
2016-09-08T12:44:54.266Z,23.56
2016-09-08T12:45:54.253Z,23.62
2016-09-08T12:46:54.244Z,23.62
2016-09-08T12:47:54.230Z,23.69
2016-09-08T12:48:54.211Z,23.6
2016-09-08T12:49:54.196Z,23.62
2016-09-08T12:50:54.180Z,23.67
2016-09-08T12:51:53.857Z,23.63
2016-09-08T12:52:54.153Z,23.69
2016-09-08T12:53:54.142Z,23.69